Weather at Nyack Seaplane Base [CLOSED]

Public forecast

Using degrees Fahrenheit for public forecast. Weather courtesy of forecast.io.

Closest aviation weather report (METAR) to Nyack Seaplane Base

Closest report is Westchester County Airport, 9.4 nm (17.4 km) E. Retrieved 2022/01/22 20:56 UTC (21 minutes ago):

KHPN 222056Z 00000KT 10SM CLR M03/M12 A3019 RMK AO2 SLP237 T10281122 56025

Closest aviation forecast (TAF) to Nyack Seaplane Base

Closest forecast is Westchester County Airport, 9.4 nm (17.4 km) E. Retrieved 2022/01/22 18:36 UTC (3 hours ago):

TAF KHPN 221733Z 2218/2318 35005KT P6SM SKC FM222000 VRB03KT P6SM BKN250 FM231300 28008KT P6SM SCT050 SCT150 BKN250 AMD NOT SKED